sensor_id;sensor_type;location;lat;lon;timestamp;temperature;humidity
49222;DHT22;35047;37.588;-122.048;2022-12-29T00:00:08;20.90;66.90
49222;DHT22;35047;37.588;-122.048;2022-12-29T00:02:34;20.70;67.00
49222;DHT22;35047;37.588;-122.048;2022-12-29T00:05:02;20.60;67.20
49222;DHT22;35047;37.588;-122.048;2022-12-29T00:07:28;20.50;67.40
49222;DHT22;35047;37.588;-122.048;2022-12-29T00:09:55;20.30;68.00
49222;DHT22;35047;37.588;-122.048;2022-12-29T00:12:21;20.30;68.20
49222;DHT22;35047;37.588;-122.048;2022-12-29T00:14:49;20.30;69.20
49222;DHT22;35047;37.588;-122.048;2022-12-29T00:17:34;20.20;69.60
49222;DHT22;35047;37.588;-122.048;2022-12-29T00:20:01;20.20;70.00
49222;DHT22;35047;37.588;-122.048;2022-12-29T00:22:46;20.10;70.00
49222;DHT22;35047;37.588;-122.048;2022-12-29T00:25:32;20.00;69.70
49222;DHT22;35047;37.588;-122.048;2022-12-29T00:28:18;20.10;70.20
49222;DHT22;35047;37.588;-122.048;2022-12-29T00:31:09;20.10;69.60
49222;DHT22;35047;37.588;-122.048;2022-12-29T00:33:57;20.00;70.40
49222;DHT22;35047;37.588;-122.048;2022-12-29T00:36:42;19.80;70.70
49222;DHT22;35047;37.588;-122.048;2022-12-29T00:39:13;19.70;70.60
49222;DHT22;35047;37.588;-122.048;2022-12-29T00:42:06;19.80;72.00
49222;DHT22;35047;37.588;-122.048;2022-12-29T00:44:52;19.70;72.40
49222;DHT22;35047;37.588;-122.048;2022-12-29T00:47:19;19.70;72.80
49222;DHT22;35047;37.588;-122.048;2022-12-29T00:49:47;19.70;72.80
49222;DHT22;35047;37.588;-122.048;2022-12-29T00:52:13;19.60;72.60
49222;DHT22;35047;37.588;-122.048;2022-12-29T00:54:41;19.60;73.20
49222;DHT22;35047;37.588;-122.048;2022-12-29T00:57:11;19.60;73.50
49222;DHT22;35047;37.588;-122.048;2022-12-29T00:59:40;19.30;73.80
49222;DHT22;35047;37.588;-122.048;2022-12-29T01:02:08;19.20;74.20
49222;DHT22;35047;37.588;-122.048;2022-12-29T01:04:36;19.20;75.00
49222;DHT22;35047;37.588;-122.048;2022-12-29T01:07:05;19.40;80.90
49222;DHT22;35047;37.588;-122.048;2022-12-29T01:09:32;19.30;78.70
49222;DHT22;35047;37.588;-122.048;2022-12-29T01:12:17;19.30;78.80
49222;DHT22;35047;37.588;-122.048;2022-12-29T01:15:04;19.20;79.00
49222;DHT22;35047;37.588;-122.048;2022-12-29T01:17:31;19.30;79.10
49222;DHT22;35047;37.588;-122.048;2022-12-29T01:19:59;19.40;79.00
49222;DHT22;35047;37.588;-122.048;2022-12-29T01:22:28;19.40;79.00
49222;DHT22;35047;37.588;-122.048;2022-12-29T01:24:55;19.50;79.00
49222;DHT22;35047;37.588;-122.048;2022-12-29T01:27:23;19.60;78.80
49222;DHT22;35047;37.588;-122.048;2022-12-29T01:29:50;19.50;78.70
49222;DHT22;35047;37.588;-122.048;2022-12-29T01:32:20;19.40;79.20
49222;DHT22;35047;37.588;-122.048;2022-12-29T01:34:47;19.40;79.30
49222;DHT22;35047;37.588;-122.048;2022-12-29T01:37:14;19.30;79.20
49222;DHT22;35047;37.588;-122.048;2022-12-29T01:39:41;19.30;79.40
49222;DHT22;35047;37.588;-122.048;2022-12-29T01:42:18;19.20;79.80
49222;DHT22;35047;37.588;-122.048;2022-12-29T01:44:57;18.90;80.20
49222;DHT22;35047;37.588;-122.048;2022-12-29T01:47:26;19.10;80.50
49222;DHT22;35047;37.588;-122.048;2022-12-29T01:49:55;19.00;80.50
49222;DHT22;35047;37.588;-122.048;2022-12-29T01:52:26;18.70;81.50
49222;DHT22;35047;37.588;-122.048;2022-12-29T01:54:55;18.80;82.60
49222;DHT22;35047;37.588;-122.048;2022-12-29T01:57:29;18.90;82.30
49222;DHT22;35047;37.588;-122.048;2022-12-29T02:00:05;19.00;78.10
49222;DHT22;35047;37.588;-122.048;2022-12-29T02:02:34;19.10;78.20
49222;DHT22;35047;37.588;-122.048;2022-12-29T02:05:11;19.10;78.60
49222;DHT22;35047;37.588;-122.048;2022-12-29T02:07:40;19.10;78.30
49222;DHT22;35047;37.588;-122.048;2022-12-29T02:10:09;19.10;78.00
49222;DHT22;35047;37.588;-122.048;2022-12-29T02:12:35;18.90;78.40
49222;DHT22;35047;37.588;-122.048;2022-12-29T02:15:04;18.90;78.40
49222;DHT22;35047;37.588;-122.048;2022-12-29T02:29:08;18.60;77.30
49222;DHT22;35047;37.588;-122.048;2022-12-29T02:31:51;18.60;77.40
49222;DHT22;35047;37.588;-122.048;2022-12-29T02:37:29;18.70;77.60
49222;DHT22;35047;37.588;-122.048;2022-12-29T02:45:25;18.30;77.80
49222;DHT22;35047;37.588;-122.048;2022-12-29T02:50:39;18.20;77.10
49222;DHT22;35047;37.588;-122.048;2022-12-29T02:53:13;18.10;77.70
49222;DHT22;35047;37.588;-122.048;2022-12-29T02:55:52;18.10;77.70
49222;DHT22;35047;37.588;-122.048;2022-12-29T02:58:22;18.10;77.90
49222;DHT22;35047;37.588;-122.048;2022-12-29T03:03:55;18.20;78.00
49222;DHT22;35047;37.588;-122.048;2022-12-29T03:12:00;18.30;77.60
49222;DHT22;35047;37.588;-122.048;2022-12-29T03:15:04;18.30;77.80
49222;DHT22;35047;37.588;-122.048;2022-12-29T03:18:06;18.30;77.80
49222;DHT22;35047;37.588;-122.048;2022-12-29T03:20:52;18.10;77.70
49222;DHT22;35047;37.588;-122.048;2022-12-29T03:23:21;18.10;78.10
49222;DHT22;35047;37.588;-122.048;2022-12-29T03:25:52;18.10;78.00
49222;DHT22;35047;37.588;-122.048;2022-12-29T03:28:35;18.10;78.30
49222;DHT22;35047;37.588;-122.048;2022-12-29T03:31:07;18.10;77.80
49222;DHT22;35047;37.588;-122.048;2022-12-29T03:33:38;18.10;77.90
49222;DHT22;35047;37.588;-122.048;2022-12-29T03:36:09;18.10;77.80
49222;DHT22;35047;37.588;-122.048;2022-12-29T03:38:47;18.00;78.10
49222;DHT22;35047;37.588;-122.048;2022-12-29T03:41:22;18.00;78.40
49222;DHT22;35047;37.588;-122.048;2022-12-29T03:43:51;18.20;77.90
49222;DHT22;35047;37.588;-122.048;2022-12-29T03:46:18;18.10;77.80
49222;DHT22;35047;37.588;-122.048;2022-12-29T03:48:45;18.00;78.10
49222;DHT22;35047;37.588;-122.048;2022-12-29T03:51:11;17.90;78.50
49222;DHT22;35047;37.588;-122.048;2022-12-29T03:53:39;18.00;78.40
49222;DHT22;35047;37.588;-122.048;2022-12-29T03:56:09;18.10;78.30
49222;DHT22;35047;37.588;-122.048;2022-12-29T03:58:36;18.10;78.00
49222;DHT22;35047;37.588;-122.048;2022-12-29T04:01:03;18.10;78.20
49222;DHT22;35047;37.588;-122.048;2022-12-29T04:03:31;18.10;77.50
49222;DHT22;35047;37.588;-122.048;2022-12-29T04:05:59;18.00;77.60
49222;DHT22;35047;37.588;-122.048;2022-12-29T04:08:27;18.00;77.80
49222;DHT22;35047;37.588;-122.048;2022-12-29T04:10:54;17.90;78.40
49222;DHT22;35047;37.588;-122.048;2022-12-29T04:13:21;17.80;78.30
49222;DHT22;35047;37.588;-122.048;2022-12-29T04:15:48;17.60;78.80
49222;DHT22;35047;37.588;-122.048;2022-12-29T04:18:16;17.60;78.80
49222;DHT22;35047;37.588;-122.048;2022-12-29T04:20:44;17.60;79.30
49222;DHT22;35047;37.588;-122.048;2022-12-29T04:23:30;17.60;79.20
49222;DHT22;35047;37.588;-122.048;2022-12-29T04:25:57;17.60;79.80
49222;DHT22;35047;37.588;-122.048;2022-12-29T04:28:25;17.70;79.50
49222;DHT22;35047;37.588;-122.048;2022-12-29T04:30:53;17.80;79.30
49222;DHT22;35047;37.588;-122.048;2022-12-29T04:33:21;17.80;79.00
49222;DHT22;35047;37.588;-122.048;2022-12-29T04:35:48;17.70;79.20
49222;DHT22;35047;37.588;-122.048;2022-12-29T04:38:16;17.80;79.20
49222;DHT22;35047;37.588;-122.048;2022-12-29T04:40:45;17.90;78.90
49222;DHT22;35047;37.588;-122.048;2022-12-29T04:43:14;17.80;79.40
49222;DHT22;35047;37.588;-122.048;2022-12-29T04:45:45;17.90;78.90
49222;DHT22;35047;37.588;-122.048;2022-12-29T04:48:13;17.70;78.90
49222;DHT22;35047;37.588;-122.048;2022-12-29T04:50:40;17.60;79.60
49222;DHT22;35047;37.588;-122.048;2022-12-29T04:53:08;17.70;79.70
49222;DHT22;35047;37.588;-122.048;2022-12-29T04:55:35;17.80;79.40
49222;DHT22;35047;37.588;-122.048;2022-12-29T04:58:03;17.80;79.30
49222;DHT22;35047;37.588;-122.048;2022-12-29T05:00:30;17.90;79.20
49222;DHT22;35047;37.588;-122.048;2022-12-29T05:02:57;17.60;79.30
49222;DHT22;35047;37.588;-122.048;2022-12-29T05:05:25;17.70;79.90
49222;DHT22;35047;37.588;-122.048;2022-12-29T05:07:52;17.60;79.80
49222;DHT22;35047;37.588;-122.048;2022-12-29T05:10:19;17.60;80.50
49222;DHT22;35047;37.588;-122.048;2022-12-29T05:12:54;17.40;79.70
49222;DHT22;35047;37.588;-122.048;2022-12-29T05:15:20;17.50;80.30
49222;DHT22;35047;37.588;-122.048;2022-12-29T05:17:48;17.60;80.20
49222;DHT22;35047;37.588;-122.048;2022-12-29T05:20:15;17.40;79.70
49222;DHT22;35047;37.588;-122.048;2022-12-29T05:22:43;17.20;80.80
49222;DHT22;35047;37.588;-122.048;2022-12-29T05:25:10;17.40;80.50
49222;DHT22;35047;37.588;-122.048;2022-12-29T05:27:38;17.40;80.30
49222;DHT22;35047;37.588;-122.048;2022-12-29T05:30:05;17.50;80.30
49222;DHT22;35047;37.588;-122.048;2022-12-29T05:32:36;17.60;80.10
49222;DHT22;35047;37.588;-122.048;2022-12-29T05:35:04;17.60;79.90
49222;DHT22;35047;37.588;-122.048;2022-12-29T05:37:32;17.60;80.40
49222;DHT22;35047;37.588;-122.048;2022-12-29T05:40:00;17.40;80.20
49222;DHT22;35047;37.588;-122.048;2022-12-29T05:42:27;17.30;80.60
49222;DHT22;35047;37.588;-122.048;2022-12-29T05:44:53;17.50;80.70
49222;DHT22;35047;37.588;-122.048;2022-12-29T05:47:21;17.60;80.40
49222;DHT22;35047;37.588;-122.048;2022-12-29T05:49:49;17.60;80.30
49222;DHT22;35047;37.588;-122.048;2022-12-29T05:52:17;17.60;80.40
49222;DHT22;35047;37.588;-122.048;2022-12-29T05:54:44;17.60;80.20
49222;DHT22;35047;37.588;-122.048;2022-12-29T05:57:12;17.60;80.10
49222;DHT22;35047;37.588;-122.048;2022-12-29T05:59:39;17.70;79.90
49222;DHT22;35047;37.588;-122.048;2022-12-29T06:02:05;17.60;80.10
49222;DHT22;35047;37.588;-122.048;2022-12-29T06:04:33;17.60;79.80
49222;DHT22;35047;37.588;-122.048;2022-12-29T06:07:00;17.60;80.10
49222;DHT22;35047;37.588;-122.048;2022-12-29T06:09:29;17.60;79.80
49222;DHT22;35047;37.588;-122.048;2022-12-29T06:11:59;17.60;80.10
49222;DHT22;35047;37.588;-122.048;2022-12-29T06:14:27;17.60;79.80
49222;DHT22;35047;37.588;-122.048;2022-12-29T06:16:54;17.40;80.00
49222;DHT22;35047;37.588;-122.048;2022-12-29T06:19:21;17.40;80.60
49222;DHT22;35047;37.588;-122.048;2022-12-29T06:21:51;17.50;80.50
49222;DHT22;35047;37.588;-122.048;2022-12-29T06:24:21;17.60;80.20
49222;DHT22;35047;37.588;-122.048;2022-12-29T06:26:49;17.60;79.80
49222;DHT22;35047;37.588;-122.048;2022-12-29T06:29:16;17.60;79.80
49222;DHT22;35047;37.588;-122.048;2022-12-29T06:31:47;17.60;80.10
49222;DHT22;35047;37.588;-122.048;2022-12-29T06:34:15;17.60;79.90
49222;DHT22;35047;37.588;-122.048;2022-12-29T06:36:42;17.60;79.80
49222;DHT22;35047;37.588;-122.048;2022-12-29T06:39:10;17.60;80.80
49222;DHT22;35047;37.588;-122.048;2022-12-29T06:41:40;17.60;80.10
49222;DHT22;35047;37.588;-122.048;2022-12-29T06:44:07;17.70;79.90
49222;DHT22;35047;37.588;-122.048;2022-12-29T06:46:35;17.50;79.80
49222;DHT22;35047;37.588;-122.048;2022-12-29T06:49:01;17.50;80.00
49222;DHT22;35047;37.588;-122.048;2022-12-29T06:51:32;17.40;80.50
49222;DHT22;35047;37.588;-122.048;2022-12-29T06:53:59;17.50;80.40
49222;DHT22;35047;37.588;-122.048;2022-12-29T06:56:26;17.50;80.20
49222;DHT22;35047;37.588;-122.048;2022-12-29T06:58:53;17.50;80.20
49222;DHT22;35047;37.588;-122.048;2022-12-29T07:01:21;17.50;80.30
49222;DHT22;35047;37.588;-122.048;2022-12-29T07:03:48;17.50;80.30
49222;DHT22;35047;37.588;-122.048;2022-12-29T07:06:15;17.50;80.40
49222;DHT22;35047;37.588;-122.048;2022-12-29T07:08:43;17.40;80.70
49222;DHT22;35047;37.588;-122.048;2022-12-29T07:11:10;17.50;80.40
49222;DHT22;35047;37.588;-122.048;2022-12-29T07:13:37;17.60;80.60
49222;DHT22;35047;37.588;-122.048;2022-12-29T07:16:08;17.50;80.30
49222;DHT22;35047;37.588;-122.048;2022-12-29T07:18:36;17.50;80.90
49222;DHT22;35047;37.588;-122.048;2022-12-29T07:21:03;17.60;80.40
49222;DHT22;35047;37.588;-122.048;2022-12-29T07:23:31;17.50;80.90
49222;DHT22;35047;37.588;-122.048;2022-12-29T07:26:06;17.50;80.40
49222;DHT22;35047;37.588;-122.048;2022-12-29T07:28:35;17.40;81.20
49222;DHT22;35047;37.588;-122.048;2022-12-29T07:31:05;17.50;81.10
49222;DHT22;35047;37.588;-122.048;2022-12-29T07:33:33;17.50;81.20
49222;DHT22;35047;37.588;-122.048;2022-12-29T07:36:00;17.60;81.00
49222;DHT22;35047;37.588;-122.048;2022-12-29T07:38:27;17.40;80.90
49222;DHT22;35047;37.588;-122.048;2022-12-29T07:40:59;17.30;81.30
49222;DHT22;35047;37.588;-122.048;2022-12-29T07:43:30;17.20;81.40
49222;DHT22;35047;37.588;-122.048;2022-12-29T07:45:57;17.00;82.30
49222;DHT22;35047;37.588;-122.048;2022-12-29T07:48:24;16.90;83.10
49222;DHT22;35047;37.588;-122.048;2022-12-29T07:50:52;17.10;83.10
49222;DHT22;35047;37.588;-122.048;2022-12-29T07:53:20;17.10;82.50
49222;DHT22;35047;37.588;-122.048;2022-12-29T07:55:48;17.10;83.10
49222;DHT22;35047;37.588;-122.048;2022-12-29T07:58:16;17.30;82.90
49222;DHT22;35047;37.588;-122.048;2022-12-29T08:00:42;17.30;82.70
49222;DHT22;35047;37.588;-122.048;2022-12-29T08:03:09;17.40;82.50
49222;DHT22;35047;37.588;-122.048;2022-12-29T08:05:36;17.40;82.50
49222;DHT22;35047;37.588;-122.048;2022-12-29T08:08:04;17.20;82.50
49222;DHT22;35047;37.588;-122.048;2022-12-29T08:10:31;17.10;83.40
49222;DHT22;35047;37.588;-122.048;2022-12-29T08:12:58;17.20;83.20
49222;DHT22;35047;37.588;-122.048;2022-12-29T08:15:25;17.30;83.00
49222;DHT22;35047;37.588;-122.048;2022-12-29T08:17:52;17.40;83.00
49222;DHT22;35047;37.588;-122.048;2022-12-29T08:20:19;17.20;82.80
49222;DHT22;35047;37.588;-122.048;2022-12-29T08:22:46;17.00;83.80
49222;DHT22;35047;37.588;-122.048;2022-12-29T08:25:13;17.20;83.50
49222;DHT22;35047;37.588;-122.048;2022-12-29T08:27:40;17.30;83.40
49222;DHT22;35047;37.588;-122.048;2022-12-29T08:30:07;17.30;83.50
49222;DHT22;35047;37.588;-122.048;2022-12-29T08:32:35;17.40;83.30
49222;DHT22;35047;37.588;-122.048;2022-12-29T08:35:02;17.40;83.20
49222;DHT22;35047;37.588;-122.048;2022-12-29T08:37:28;17.40;83.00
49222;DHT22;35047;37.588;-122.048;2022-12-29T08:39:59;17.40;83.30
49222;DHT22;35047;37.588;-122.048;2022-12-29T08:42:30;17.40;83.30
49222;DHT22;35047;37.588;-122.048;2022-12-29T08:44:58;17.50;83.10
49222;DHT22;35047;37.588;-122.048;2022-12-29T08:47:26;17.40;83.30
49222;DHT22;35047;37.588;-122.048;2022-12-29T08:49:53;17.50;83.20
49222;DHT22;35047;37.588;-122.048;2022-12-29T08:52:23;17.40;83.20
49222;DHT22;35047;37.588;-122.048;2022-12-29T08:54:49;17.40;83.40
49222;DHT22;35047;37.588;-122.048;2022-12-29T08:57:17;17.40;83.60
49222;DHT22;35047;37.588;-122.048;2022-12-29T08:59:44;17.40;83.40
49222;DHT22;35047;37.588;-122.048;2022-12-29T09:02:12;17.40;83.50
49222;DHT22;35047;37.588;-122.048;2022-12-29T09:04:39;17.40;83.60
49222;DHT22;35047;37.588;-122.048;2022-12-29T09:07:06;17.50;83.30
49222;DHT22;35047;37.588;-122.048;2022-12-29T09:09:33;17.50;83.50
49222;DHT22;35047;37.588;-122.048;2022-12-29T09:12:01;17.50;83.50
49222;DHT22;35047;37.588;-122.048;2022-12-29T09:14:28;17.50;83.20
49222;DHT22;35047;37.588;-122.048;2022-12-29T09:16:55;17.50;83.60
49222;DHT22;35047;37.588;-122.048;2022-12-29T09:19:41;17.50;83.70
49222;DHT22;35047;37.588;-122.048;2022-12-29T09:22:07;17.50;83.60
49222;DHT22;35047;37.588;-122.048;2022-12-29T09:24:34;17.50;83.80
49222;DHT22;35047;37.588;-122.048;2022-12-29T09:27:01;17.60;83.00
49222;DHT22;35047;37.588;-122.048;2022-12-29T09:29:28;17.50;80.90
49222;DHT22;35047;37.588;-122.048;2022-12-29T09:31:57;17.50;82.90
49222;DHT22;35047;37.588;-122.048;2022-12-29T09:34:24;17.40;83.80
49222;DHT22;35047;37.588;-122.048;2022-12-29T09:36:51;17.40;84.00
49222;DHT22;35047;37.588;-122.048;2022-12-29T09:39:17;17.30;84.20
49222;DHT22;35047;37.588;-122.048;2022-12-29T09:42:16;17.30;83.60
49222;DHT22;35047;37.588;-122.048;2022-12-29T09:47:24;16.70;81.80
49222;DHT22;35047;37.588;-122.048;2022-12-29T09:50:39;16.60;84.30
49222;DHT22;35047;37.588;-122.048;2022-12-29T09:55:45;16.30;86.30
49222;DHT22;35047;37.588;-122.048;2022-12-29T09:58:22;16.50;87.20
49222;DHT22;35047;37.588;-122.048;2022-12-29T10:01:14;16.50;87.30
49222;DHT22;35047;37.588;-122.048;2022-12-29T10:03:52;16.60;86.90
49222;DHT22;35047;37.588;-122.048;2022-12-29T10:06:28;16.90;86.40
49222;DHT22;35047;37.588;-122.048;2022-12-29T10:15:04;17.10;85.70
49222;DHT22;35047;37.588;-122.048;2022-12-29T10:18:27;17.00;85.70
49222;DHT22;35047;37.588;-122.048;2022-12-29T10:21:05;17.20;85.40
49222;DHT22;35047;37.588;-122.048;2022-12-29T10:23:45;17.20;85.10
49222;DHT22;35047;37.588;-122.048;2022-12-29T10:26:27;17.20;85.00
49222;DHT22;35047;37.588;-122.048;2022-12-29T10:29:05;17.20;85.30
49222;DHT22;35047;37.588;-122.048;2022-12-29T10:31:48;17.10;85.70
49222;DHT22;35047;37.588;-122.048;2022-12-29T10:34:49;17.20;85.60
49222;DHT22;35047;37.588;-122.048;2022-12-29T10:37:30;17.20;85.20
49222;DHT22;35047;37.588;-122.048;2022-12-29T10:39:59;17.20;85.40
49222;DHT22;35047;37.588;-122.048;2022-12-29T10:42:36;17.20;85.30
49222;DHT22;35047;37.588;-122.048;2022-12-29T10:45:05;17.10;85.60
49222;DHT22;35047;37.588;-122.048;2022-12-29T10:47:37;17.10;85.00
49222;DHT22;35047;37.588;-122.048;2022-12-29T10:50:05;16.90;86.30
49222;DHT22;35047;37.588;-122.048;2022-12-29T10:52:33;16.90;85.00
49222;DHT22;35047;37.588;-122.048;2022-12-29T10:55:38;16.90;86.40
49222;DHT22;35047;37.588;-122.048;2022-12-29T10:58:11;17.00;85.50
49222;DHT22;35047;37.588;-122.048;2022-12-29T11:00:39;16.90;85.30
49222;DHT22;35047;37.588;-122.048;2022-12-29T11:08:49;16.70;86.50
49222;DHT22;35047;37.588;-122.048;2022-12-29T11:11:35;16.70;87.40
49222;DHT22;35047;37.588;-122.048;2022-12-29T11:16:40;16.90;86.80
49222;DHT22;35047;37.588;-122.048;2022-12-29T11:19:30;16.70;86.50
49222;DHT22;35047;37.588;-122.048;2022-12-29T11:22:22;16.80;87.10
49222;DHT22;35047;37.588;-122.048;2022-12-29T11:24:51;16.90;86.50
49222;DHT22;35047;37.588;-122.048;2022-12-29T11:27:25;16.90;86.80
49222;DHT22;35047;37.588;-122.048;2022-12-29T11:29:54;16.90;86.60
49222;DHT22;35047;37.588;-122.048;2022-12-29T11:32:28;16.90;86.00
49222;DHT22;35047;37.588;-122.048;2022-12-29T11:34:57;16.80;86.40
49222;DHT22;35047;37.588;-122.048;2022-12-29T11:37:26;16.70;87.60
49222;DHT22;35047;37.588;-122.048;2022-12-29T11:40:18;16.80;87.40
49222;DHT22;35047;37.588;-122.048;2022-12-29T11:42:55;16.90;86.70
49222;DHT22;35047;37.588;-122.048;2022-12-29T11:45:22;17.00;86.70
49222;DHT22;35047;37.588;-122.048;2022-12-29T11:47:53;17.00;86.50
49222;DHT22;35047;37.588;-122.048;2022-12-29T11:50:25;17.10;86.50
49222;DHT22;35047;37.588;-122.048;2022-12-29T11:53:05;17.10;86.40
49222;DHT22;35047;37.588;-122.048;2022-12-29T11:55:37;17.10;86.50
49222;DHT22;35047;37.588;-122.048;2022-12-29T11:58:04;17.00;86.30
49222;DHT22;35047;37.588;-122.048;2022-12-29T12:00:34;17.10;85.60
49222;DHT22;35047;37.588;-122.048;2022-12-29T12:03:20;16.80;86.40
49222;DHT22;35047;37.588;-122.048;2022-12-29T12:05:57;16.80;86.40
49222;DHT22;35047;37.588;-122.048;2022-12-29T12:11:53;17.00;86.90
49222;DHT22;35047;37.588;-122.048;2022-12-29T12:17:16;16.90;87.30
49222;DHT22;35047;37.588;-122.048;2022-12-29T12:28:40;17.00;86.70
49222;DHT22;35047;37.588;-122.048;2022-12-29T12:31:26;17.00;86.30
49222;DHT22;35047;37.588;-122.048;2022-12-29T12:34:01;17.00;86.20
49222;DHT22;35047;37.588;-122.048;2022-12-29T12:39:25;16.80;87.40
49222;DHT22;35047;37.588;-122.048;2022-12-29T12:42:35;16.90;86.80
49222;DHT22;35047;37.588;-122.048;2022-12-29T12:48:09;16.90;86.40
49222;DHT22;35047;37.588;-122.048;2022-12-29T12:50:57;16.90;86.30
49222;DHT22;35047;37.588;-122.048;2022-12-29T12:53:45;16.90;87.10
49222;DHT22;35047;37.588;-122.048;2022-12-29T12:58:59;16.80;87.10
49222;DHT22;35047;37.588;-122.048;2022-12-29T13:18:22;16.60;88.50
49222;DHT22;35047;37.588;-122.048;2022-12-29T13:21:40;16.60;88.30
49222;DHT22;35047;37.588;-122.048;2022-12-29T13:29:34;16.50;88.40
49222;DHT22;35047;37.588;-122.048;2022-12-29T13:38:22;16.50;87.90
49222;DHT22;35047;37.588;-122.048;2022-12-29T13:40:55;16.50;88.80
49222;DHT22;35047;37.588;-122.048;2022-12-29T13:43:23;16.60;88.70
49222;DHT22;35047;37.588;-122.048;2022-12-29T13:46:03;16.60;88.30
49222;DHT22;35047;37.588;-122.048;2022-12-29T13:48:38;16.60;88.50
49222;DHT22;35047;37.588;-122.048;2022-12-29T13:51:08;16.60;88.70
49222;DHT22;35047;37.588;-122.048;2022-12-29T13:59:51;16.70;88.40
49222;DHT22;35047;37.588;-122.048;2022-12-29T14:02:37;16.50;88.50
49222;DHT22;35047;37.588;-122.048;2022-12-29T14:08:00;16.40;88.30
49222;DHT22;35047;37.588;-122.048;2022-12-29T14:10:36;16.30;88.50
49222;DHT22;35047;37.588;-122.048;2022-12-29T14:13:11;16.20;88.30
49222;DHT22;35047;37.588;-122.048;2022-12-29T14:15:41;16.30;89.60
49222;DHT22;35047;37.588;-122.048;2022-12-29T14:18:21;16.30;89.90
49222;DHT22;35047;37.588;-122.048;2022-12-29T14:23:38;16.20;89.40
49222;DHT22;35047;37.588;-122.048;2022-12-29T14:26:15;16.20;89.20
49222;DHT22;35047;37.588;-122.048;2022-12-29T14:28:46;16.10;90.20
49222;DHT22;35047;37.588;-122.048;2022-12-29T14:45:05;16.00;89.80
49222;DHT22;35047;37.588;-122.048;2022-12-29T14:47:43;16.10;90.40
49222;DHT22;35047;37.588;-122.048;2022-12-29T14:50:14;16.00;90.00
49222;DHT22;35047;37.588;-122.048;2022-12-29T14:52:57;16.00;90.00
49222;DHT22;35047;37.588;-122.048;2022-12-29T14:55:46;16.00;90.40
49222;DHT22;35047;37.588;-122.048;2022-12-29T14:58:35;15.90;90.30
49222;DHT22;35047;37.588;-122.048;2022-12-29T15:01:26;15.90;90.70
49222;DHT22;35047;37.588;-122.048;2022-12-29T15:03:57;15.90;88.90
49222;DHT22;35047;37.588;-122.048;2022-12-29T15:06:29;15.90;90.20
49222;DHT22;35047;37.588;-122.048;2022-12-29T15:09:24;15.90;90.50
49222;DHT22;35047;37.588;-122.048;2022-12-29T15:12:04;15.80;90.20
49222;DHT22;35047;37.588;-122.048;2022-12-29T15:14:35;15.80;90.60
49222;DHT22;35047;37.588;-122.048;2022-12-29T15:17:24;15.80;90.10
49222;DHT22;35047;37.588;-122.048;2022-12-29T15:19:52;15.70;88.30
49222;DHT22;35047;37.588;-122.048;2022-12-29T15:22:20;15.70;89.00
49222;DHT22;35047;37.588;-122.048;2022-12-29T15:24:48;15.70;90.60
49222;DHT22;35047;37.588;-122.048;2022-12-29T15:27:20;15.80;89.10
49222;DHT22;35047;37.588;-122.048;2022-12-29T15:29:47;15.70;90.10
49222;DHT22;35047;37.588;-122.048;2022-12-29T15:34:42;15.70;90.90
49222;DHT22;35047;37.588;-122.048;2022-12-29T15:37:26;15.80;90.60
49222;DHT22;35047;37.588;-122.048;2022-12-29T15:39:55;15.90;90.50
49222;DHT22;35047;37.588;-122.048;2022-12-29T15:43:03;15.80;90.20
49222;DHT22;35047;37.588;-122.048;2022-12-29T15:45:34;15.90;90.20
49222;DHT22;35047;37.588;-122.048;2022-12-29T15:48:03;16.00;90.50
49222;DHT22;35047;37.588;-122.048;2022-12-29T15:50:34;15.90;90.30
49222;DHT22;35047;37.588;-122.048;2022-12-29T15:53:02;15.80;89.30
49222;DHT22;35047;37.588;-122.048;2022-12-29T15:55:35;15.70;90.10
49222;DHT22;35047;37.588;-122.048;2022-12-29T15:58:04;15.60;89.10
49222;DHT22;35047;37.588;-122.048;2022-12-29T16:00:35;15.60;89.20
49222;DHT22;35047;37.588;-122.048;2022-12-29T16:03:05;15.60;89.70
49222;DHT22;35047;37.588;-122.048;2022-12-29T16:05:39;15.50;89.50
49222;DHT22;35047;37.588;-122.048;2022-12-29T16:08:32;15.60;90.20
49222;DHT22;35047;37.588;-122.048;2022-12-29T16:11:16;15.60;90.20
49222;DHT22;35047;37.588;-122.048;2022-12-29T16:13:48;15.60;90.90
49222;DHT22;35047;37.588;-122.048;2022-12-29T16:16:20;15.70;90.40
49222;DHT22;35047;37.588;-122.048;2022-12-29T16:18:51;15.60;90.30
49222;DHT22;35047;37.588;-122.048;2022-12-29T16:21:25;15.70;90.70
49222;DHT22;35047;37.588;-122.048;2022-12-29T16:23:54;15.60;90.00
49222;DHT22;35047;37.588;-122.048;2022-12-29T16:26:24;15.60;90.30
49222;DHT22;35047;37.588;-122.048;2022-12-29T16:28:58;15.70;90.30
49222;DHT22;35047;37.588;-122.048;2022-12-29T16:31:35;15.70;90.80
49222;DHT22;35047;37.588;-122.048;2022-12-29T16:34:23;15.70;90.60
49222;DHT22;35047;37.588;-122.048;2022-12-29T16:37:02;15.90;90.90
49222;DHT22;35047;37.588;-122.048;2022-12-29T16:39:37;16.00;91.10
49222;DHT22;35047;37.588;-122.048;2022-12-29T16:48:19;16.40;90.70
49222;DHT22;35047;37.588;-122.048;2022-12-29T16:50:47;16.70;90.40
49222;DHT22;35047;37.588;-122.048;2022-12-29T16:53:28;16.70;90.20
49222;DHT22;35047;37.588;-122.048;2022-12-29T16:55:59;16.90;89.90
49222;DHT22;35047;37.588;-122.048;2022-12-29T16:58:29;17.00;89.60
49222;DHT22;35047;37.588;-122.048;2022-12-29T17:00:59;17.00;89.50
49222;DHT22;35047;37.588;-122.048;2022-12-29T17:03:39;17.10;89.10
49222;DHT22;35047;37.588;-122.048;2022-12-29T17:06:15;17.20;89.20
49222;DHT22;35047;37.588;-122.048;2022-12-29T17:08:43;17.00;88.90
49222;DHT22;35047;37.588;-122.048;2022-12-29T17:11:32;17.20;89.30
49222;DHT22;35047;37.588;-122.048;2022-12-29T17:17:33;17.30;89.10
49222;DHT22;35047;37.588;-122.048;2022-12-29T17:20:08;17.50;88.40
49222;DHT22;35047;37.588;-122.048;2022-12-29T17:22:40;17.60;89.10
49222;DHT22;35047;37.588;-122.048;2022-12-29T17:25:15;17.60;88.90
49222;DHT22;35047;37.588;-122.048;2022-12-29T17:27:47;17.60;89.40
49222;DHT22;35047;37.588;-122.048;2022-12-29T17:30:23;17.40;89.40
49222;DHT22;35047;37.588;-122.048;2022-12-29T17:33:02;17.60;89.20
49222;DHT22;35047;37.588;-122.048;2022-12-29T17:35:30;17.40;89.80
49222;DHT22;35047;37.588;-122.048;2022-12-29T17:37:57;17.40;89.60
49222;DHT22;35047;37.588;-122.048;2022-12-29T17:40:31;17.30;89.50